Terminal Aerodrome Forecast
Issued by NWS Sterling, VA

Home | Current Version | Previous Version | Text Only | Print | Product List | Glossary On
Versions: 1 2 3 4 5 6 7 8 9 10 11 12 13 14 15 16 17 18 19 20 21 22
000
FTUS41 KLWX 020340 AAA
TAFBWI
TAF AMD
KBWI 020340Z 0204/0306 26003KT 6SM BR OVC005
     FM020700 26006KT P6SM OVC008
     FM021000 29007KT P6SM OVC040
     FM021300 31011KT P6SM BKN140
     FM021500 31013G21KT P6SM SCT150
     FM030100 31008KT P6SM FEW200=

USA.gov is the U.S. government's official web portal to all federal, state and local government web resources and services.